createdAt,value
2023-10-30T00:01:27.419Z,15.21
2023-10-30T00:03:54.277Z,15.13
2023-10-30T00:06:21.149Z,14.99
2023-10-30T00:08:47.892Z,14.98
2023-10-30T00:11:14.669Z,14.99
2023-10-30T00:13:42.821Z,15.03
2023-10-30T00:16:09.578Z,15.06
2023-10-30T00:18:36.287Z,15.02
2023-10-30T00:21:03.252Z,14.95
2023-10-30T00:23:29.948Z,14.92
2023-10-30T00:25:56.662Z,14.87
2023-10-30T00:28:23.381Z,14.85
2023-10-30T00:30:51.454Z,14.81
2023-10-30T00:33:18.207Z,14.85
2023-10-30T00:35:44.958Z,14.84
2023-10-30T00:38:11.618Z,14.80
2023-10-30T00:40:38.442Z,14.81
2023-10-30T00:43:05.097Z,14.80
2023-10-30T00:45:31.822Z,14.74
2023-10-30T00:47:59.873Z,14.71
2023-10-30T00:50:26.597Z,14.73
2023-10-30T00:52:53.272Z,14.69
2023-10-30T00:55:20.005Z,14.66
2023-10-30T00:57:46.661Z,14.54
2023-10-30T01:00:13.875Z,14.50
2023-10-30T01:02:40.915Z,14.44
2023-10-30T01:05:09.608Z,14.47
2023-10-30T01:07:36.386Z,14.37
2023-10-30T01:10:03.155Z,14.23
2023-10-30T01:12:29.813Z,14.21
2023-10-30T01:14:57.291Z,14.19
2023-10-30T01:17:23.959Z,14.11
2023-10-30T01:19:50.654Z,14.02
2023-10-30T01:22:18.671Z,14.08
2023-10-30T01:24:45.395Z,13.99
2023-10-30T01:27:12.058Z,13.87
2023-10-30T01:29:38.733Z,13.74
2023-10-30T01:32:06.113Z,13.78
2023-10-30T01:34:32.943Z,13.79
2023-10-30T01:36:59.664Z,13.92
2023-10-30T01:39:27.753Z,14.01
2023-10-30T01:41:54.463Z,13.95
2023-10-30T01:44:21.162Z,13.85
2023-10-30T01:46:47.846Z,13.73
2023-10-30T01:49:14.592Z,13.48
2023-10-30T01:51:41.700Z,13.42
2023-10-30T01:54:08.481Z,13.24
2023-10-30T01:56:36.496Z,13.10
2023-10-30T01:59:03.236Z,12.99
2023-10-30T02:01:29.955Z,12.84
2023-10-30T02:03:56.893Z,12.85
2023-10-30T02:06:23.627Z,12.94
2023-10-30T02:08:50.381Z,12.99
2023-10-30T02:11:17.080Z,12.91
2023-10-30T02:13:53.937Z,12.87
2023-10-30T02:16:20.961Z,12.54
2023-10-30T02:18:47.728Z,12.55
2023-10-30T02:21:14.474Z,12.53
2023-10-30T02:23:41.128Z,12.52
2023-10-30T02:26:09.136Z,12.53
2023-10-30T02:28:35.802Z,12.51
2023-10-30T02:31:02.508Z,12.62
2023-10-30T02:33:29.261Z,12.57
2023-10-30T02:35:56.129Z,12.47
2023-10-30T02:38:22.797Z,12.50
2023-10-30T02:40:49.530Z,12.46
2023-10-30T02:43:17.555Z,12.32
2023-10-30T02:45:44.289Z,12.40
2023-10-30T02:48:11.025Z,12.27
2023-10-30T02:50:37.818Z,12.30
2023-10-30T02:53:05.429Z,12.30
2023-10-30T02:55:32.406Z,12.38
2023-10-30T02:57:59.060Z,12.42
2023-10-30T03:00:27.143Z,12.23
2023-10-30T03:02:53.915Z,12.48
2023-10-30T03:05:20.794Z,12.33
2023-10-30T03:07:47.449Z,12.20
2023-10-30T03:10:14.285Z,12.36
2023-10-30T03:12:41.003Z,12.13
2023-10-30T03:15:10.223Z,12.25
2023-10-30T03:17:38.309Z,12.34
2023-10-30T03:20:06.254Z,12.36
2023-10-30T03:22:32.921Z,12.18
2023-10-30T03:24:59.650Z,12.32
2023-10-30T03:27:26.321Z,12.00
2023-10-30T03:29:53.056Z,12.19
2023-10-30T03:32:19.717Z,12.13
2023-10-30T03:34:47.804Z,12.01
2023-10-30T03:37:14.504Z,11.79
2023-10-30T03:39:41.268Z,11.78
2023-10-30T03:42:07.993Z,11.48
2023-10-30T03:44:34.770Z,11.54
2023-10-30T03:47:02.264Z,11.46
2023-10-30T03:49:29.006Z,11.44
2023-10-30T03:51:56.995Z,11.29
2023-10-30T03:54:23.746Z,11.30
2023-10-30T03:56:50.401Z,11.20
2023-10-30T03:59:17.100Z,11.21
2023-10-30T04:01:43.837Z,11.34
2023-10-30T04:04:10.708Z,11.36
2023-10-30T04:06:37.924Z,11.39
2023-10-30T04:09:06.216Z,11.56
2023-10-30T04:11:32.879Z,11.38
2023-10-30T04:13:59.583Z,11.23
2023-10-30T04:16:26.316Z,11.17
2023-10-30T04:18:53.063Z,11.01
2023-10-30T04:21:19.793Z,10.98
2023-10-30T04:23:46.548Z,10.99
2023-10-30T04:26:14.532Z,10.99
2023-10-30T04:28:41.192Z,10.99
2023-10-30T04:31:07.841Z,10.94
2023-10-30T04:33:34.583Z,10.86
2023-10-30T04:36:02.252Z,10.84
2023-10-30T04:38:30.346Z,10.87
2023-10-30T04:40:57.005Z,10.83
2023-10-30T04:43:25.004Z,10.90
2023-10-30T04:45:51.735Z,11.08
2023-10-30T04:48:18.549Z,10.88
2023-10-30T04:50:45.256Z,10.82
2023-10-30T04:53:11.936Z,10.95
2023-10-30T04:55:38.577Z,11.05
2023-10-30T04:58:05.274Z,11.03
2023-10-30T05:00:33.359Z,10.94
2023-10-30T05:03:00.137Z,11.16
2023-10-30T05:05:26.809Z,10.99
2023-10-30T05:07:53.580Z,10.87
2023-10-30T05:10:20.249Z,10.87
2023-10-30T05:12:46.925Z,10.77
2023-10-30T05:15:13.615Z,10.93
2023-10-30T05:17:41.686Z,10.95
2023-10-30T05:20:09.611Z,10.84
2023-10-30T05:22:36.309Z,10.96
2023-10-30T05:25:03.229Z,10.92
2023-10-30T05:27:29.987Z,10.83
2023-10-30T05:29:56.779Z,10.56
2023-10-30T05:32:23.490Z,10.57
2023-10-30T05:34:51.994Z,10.36
2023-10-30T05:37:18.680Z,10.46
2023-10-30T05:39:45.403Z,10.63
2023-10-30T05:42:12.112Z,10.59
2023-10-30T05:44:38.800Z,10.74
2023-10-30T05:47:05.896Z,10.61
2023-10-30T05:49:32.550Z,10.72
2023-10-30T05:52:00.629Z,10.85
2023-10-30T05:54:27.325Z,10.89
2023-10-30T05:56:54.136Z,10.85
2023-10-30T05:59:20.814Z,10.84
2023-10-30T06:01:47.556Z,10.71
2023-10-30T06:04:14.339Z,10.67
2023-10-30T06:06:41.204Z,10.86
2023-10-30T06:09:09.286Z,10.91
2023-10-30T06:11:35.972Z,10.86
2023-10-30T06:14:02.681Z,10.75
2023-10-30T06:16:29.477Z,10.86
2023-10-30T06:18:56.260Z,10.99
2023-10-30T06:21:23.022Z,10.95
2023-10-30T06:23:49.737Z,10.79
2023-10-30T06:26:17.789Z,10.83
2023-10-30T06:28:44.497Z,10.78
2023-10-30T06:31:15.054Z,10.90
2023-10-30T06:33:42.154Z,10.92
2023-10-30T06:36:09.070Z,10.62
2023-10-30T06:38:35.800Z,10.91
2023-10-30T06:41:02.618Z,10.88
2023-10-30T06:43:30.635Z,11.03
2023-10-30T06:46:00.244Z,11.13
2023-10-30T06:48:26.969Z,11.13
2023-10-30T06:50:53.696Z,11.19
2023-10-30T06:53:20.411Z,11.08
2023-10-30T06:55:47.079Z,11.19
2023-10-30T06:58:13.823Z,11.33
2023-10-30T07:00:41.894Z,11.49
2023-10-30T07:03:08.743Z,11.51
2023-10-30T07:05:35.594Z,11.55
2023-10-30T07:08:02.270Z,11.60
2023-10-30T07:10:28.940Z,11.71
2023-10-30T07:12:55.621Z,11.75
2023-10-30T07:15:22.375Z,11.55
2023-10-30T07:17:50.424Z,11.47
2023-10-30T07:20:17.179Z,11.36
2023-10-30T07:22:43.960Z,11.39
2023-10-30T07:25:10.623Z,11.48
2023-10-30T07:27:37.363Z,11.53
2023-10-30T07:30:04.581Z,11.40
2023-10-30T07:32:31.402Z,11.21
2023-10-30T07:34:59.544Z,10.96
2023-10-30T07:37:26.225Z,10.98
2023-10-30T07:39:53.016Z,11.03
2023-10-30T07:42:19.814Z,11.26
2023-10-30T07:44:46.506Z,11.29
2023-10-30T07:47:14.683Z,11.43
2023-10-30T07:49:41.524Z,11.25
2023-10-30T07:52:09.672Z,11.44
2023-10-30T07:54:36.422Z,11.49
2023-10-30T07:57:03.475Z,11.73
2023-10-30T07:59:30.145Z,11.88
2023-10-30T08:01:56.857Z,11.94
2023-10-30T08:04:23.723Z,11.84
2023-10-30T08:06:50.552Z,11.95
2023-10-30T08:09:18.610Z,12.12
2023-10-30T08:11:45.365Z,12.06
2023-10-30T08:14:12.173Z,12.03
2023-10-30T08:16:38.898Z,11.87
2023-10-30T08:19:05.679Z,11.84
2023-10-30T08:21:32.379Z,11.78
2023-10-30T08:23:59.090Z,11.77
2023-10-30T08:26:27.119Z,11.61
2023-10-30T08:28:53.788Z,11.64
2023-10-30T08:31:20.855Z,11.78
2023-10-30T08:33:47.551Z,11.74
2023-10-30T08:36:21.484Z,11.61
2023-10-30T08:38:48.195Z,11.55
2023-10-30T08:41:15.988Z,11.55
2023-10-30T08:43:44.101Z,11.81
2023-10-30T08:46:11.599Z,11.83
2023-10-30T08:48:38.402Z,12.07
2023-10-30T08:51:05.362Z,12.07
2023-10-30T08:53:32.078Z,12.07
2023-10-30T08:55:59.167Z,12.07
2023-10-30T08:58:26.938Z,12.23
2023-10-30T09:00:54.967Z,12.13
2023-10-30T09:03:21.866Z,12.24
2023-10-30T09:05:48.992Z,12.29
2023-10-30T09:08:15.859Z,12.15
2023-10-30T09:10:42.643Z,12.38
2023-10-30T09:13:09.346Z,12.55
2023-10-30T09:15:36.035Z,12.62
2023-10-30T09:18:04.195Z,12.52
2023-10-30T09:20:30.923Z,12.49
2023-10-30T09:22:57.640Z,12.67
2023-10-30T09:25:24.377Z,12.82
2023-10-30T09:27:51.112Z,12.63
2023-10-30T09:30:18.081Z,12.56
2023-10-30T09:32:44.844Z,12.57
2023-10-30T09:35:12.921Z,12.77
2023-10-30T09:37:39.624Z,12.78
2023-10-30T09:40:07.695Z,12.71
2023-10-30T09:42:34.670Z,12.78
2023-10-30T09:45:01.352Z,12.83
2023-10-30T09:47:28.034Z,13.05
2023-10-30T09:49:54.863Z,13.14
2023-10-30T09:52:22.922Z,13.18
2023-10-30T09:54:50.101Z,12.93
2023-10-30T09:57:17.056Z,12.92
2023-10-30T09:59:43.710Z,13.01
2023-10-30T10:02:10.722Z,13.10
2023-10-30T10:04:38.626Z,13.26
2023-10-30T10:07:05.642Z,13.54
2023-10-30T10:09:33.752Z,13.64
2023-10-30T10:12:00.492Z,13.46
2023-10-30T10:14:30.762Z,13.57
2023-10-30T10:17:00.565Z,13.64
2023-10-30T10:19:27.892Z,13.64
2023-10-30T10:21:54.721Z,13.54
2023-10-30T10:24:28.507Z,13.66
2023-10-30T10:26:59.601Z,13.31
2023-10-30T10:29:26.311Z,13.45
2023-10-30T10:31:53.086Z,13.45
2023-10-30T10:34:20.227Z,13.11
2023-10-30T10:36:47.537Z,12.92
2023-10-30T10:39:14.296Z,13.15
2023-10-30T10:41:40.958Z,13.25
2023-10-30T10:44:09.666Z,12.94
2023-10-30T10:46:38.645Z,12.96
2023-10-30T10:49:05.820Z,12.71
2023-10-30T10:51:34.498Z,12.88
2023-10-30T10:54:03.753Z,12.84
2023-10-30T10:56:30.582Z,12.84
2023-10-30T10:59:01.351Z,12.69
2023-10-30T11:01:29.566Z,12.72
2023-10-30T11:03:56.351Z,12.80
2023-10-30T11:06:23.091Z,13.06
2023-10-30T11:08:53.705Z,13.00
2023-10-30T11:11:27.040Z,13.14
2023-10-30T11:14:10.017Z,13.22
2023-10-30T11:16:41.618Z,12.98
2023-10-30T11:19:08.394Z,12.97
2023-10-30T11:21:35.112Z,13.21
2023-10-30T11:24:03.434Z,13.34
2023-10-30T11:26:37.245Z,13.38
2023-10-30T11:29:05.321Z,13.43
2023-10-30T11:31:32.275Z,13.48
2023-10-30T11:34:07.914Z,13.50
2023-10-30T11:36:35.466Z,13.27
2023-10-30T11:39:08.512Z,13.27
2023-10-30T11:41:37.173Z,13.45
2023-10-30T11:44:07.883Z,13.51
2023-10-30T11:46:38.712Z,13.52
2023-10-30T11:49:08.690Z,13.36
2023-10-30T11:51:36.113Z,13.43
2023-10-30T11:54:02.864Z,13.08
2023-10-30T11:56:29.671Z,13.15
2023-10-30T11:58:56.343Z,12.92
2023-10-30T12:01:23.091Z,12.92
2023-10-30T12:03:49.820Z,12.82
2023-10-30T12:06:17.952Z,12.82
2023-10-30T12:08:44.677Z,12.66
2023-10-30T12:11:11.456Z,12.62
2023-10-30T12:13:38.449Z,12.63
2023-10-30T12:16:05.762Z,12.54
2023-10-30T12:18:32.478Z,12.59
2023-10-30T12:20:59.227Z,12.48
2023-10-30T12:23:27.278Z,12.44
2023-10-30T12:26:03.461Z,12.41
2023-10-30T12:28:35.356Z,12.54
2023-10-30T12:31:16.629Z,12.60
2023-10-30T12:33:43.376Z,12.71
2023-10-30T12:36:10.080Z,12.88
2023-10-30T12:38:38.263Z,13.00
2023-10-30T12:41:05.256Z,13.07
2023-10-30T12:43:34.608Z,13.10
2023-10-30T12:46:01.377Z,12.98
2023-10-30T12:48:28.115Z,12.85
2023-10-30T12:50:54.793Z,12.74
2023-10-30T12:53:21.496Z,12.53
2023-10-30T12:55:49.520Z,12.36
2023-10-30T12:58:16.216Z,12.47
2023-10-30T13:00:43.986Z,12.40
2023-10-30T13:03:29.647Z,12.37
2023-10-30T13:05:56.766Z,12.34
2023-10-30T13:08:23.456Z,12.39
2023-10-30T13:10:51.459Z,12.58
2023-10-30T13:13:18.128Z,12.57
2023-10-30T13:15:44.882Z,12.65
2023-10-30T13:18:11.605Z,12.74
2023-10-30T13:20:38.275Z,12.84
2023-10-30T13:23:04.976Z,12.90
2023-10-30T13:25:31.685Z,12.81
2023-10-30T13:27:59.774Z,12.84
2023-10-30T13:30:26.628Z,12.73
2023-10-30T13:32:53.428Z,12.65
2023-10-30T13:35:20.136Z,12.79
2023-10-30T13:37:46.821Z,12.85
2023-10-30T13:40:13.634Z,12.96
2023-10-30T13:42:40.467Z,13.04
2023-10-30T13:45:09.201Z,13.10
2023-10-30T13:47:35.899Z,13.12
2023-10-30T13:50:02.698Z,13.15
2023-10-30T13:52:29.439Z,13.19
2023-10-30T13:54:56.225Z,13.19
2023-10-30T13:57:23.092Z,13.21
2023-10-30T13:59:49.914Z,13.27
2023-10-30T14:02:18.144Z,13.27
2023-10-30T14:04:46.358Z,13.26
2023-10-30T14:07:13.307Z,13.25
2023-10-30T14:09:40.140Z,13.19
2023-10-30T14:12:07.442Z,13.08
2023-10-30T14:14:34.098Z,13.12
2023-10-30T14:17:00.772Z,13.13
2023-10-30T14:19:29.848Z,13.07
2023-10-30T14:21:59.530Z,12.75
2023-10-30T14:24:26.218Z,12.84
2023-10-30T14:26:52.857Z,12.96
2023-10-30T14:29:19.573Z,12.99
2023-10-30T14:31:46.266Z,12.99
2023-10-30T14:34:13.066Z,12.94
2023-10-30T14:36:41.125Z,13.04
2023-10-30T14:39:07.898Z,13.13
2023-10-30T14:41:34.634Z,13.07
2023-10-30T14:44:01.349Z,12.99
2023-10-30T14:46:28.108Z,13.04
2023-10-30T14:48:54.892Z,13.21
2023-10-30T14:51:21.627Z,13.30
2023-10-30T14:53:49.803Z,13.25
2023-10-30T14:56:16.543Z,13.21
2023-10-30T14:58:43.344Z,13.16
2023-10-30T15:01:10.173Z,13.13
2023-10-30T15:03:37.230Z,13.20
2023-10-30T15:06:04.518Z,13.27
2023-10-30T15:08:31.264Z,13.15
2023-10-30T15:10:59.304Z,13.04
2023-10-30T15:13:26.006Z,12.98
2023-10-30T15:15:52.843Z,13.02
2023-10-30T15:18:19.668Z,13.00
2023-10-30T15:20:46.483Z,12.99
2023-10-30T15:23:13.280Z,12.98
2023-10-30T15:25:40.015Z,13.07
2023-10-30T15:28:08.189Z,13.09
2023-10-30T15:30:34.924Z,13.10
2023-10-30T15:33:01.748Z,13.11
2023-10-30T15:35:28.450Z,13.15
2023-10-30T15:37:55.185Z,13.14
2023-10-30T15:40:21.970Z,13.12
2023-10-30T15:42:48.740Z,13.12
2023-10-30T15:45:16.969Z,13.10
2023-10-30T15:47:43.823Z,13.12
2023-10-30T15:50:11.268Z,13.13
2023-10-30T15:57:37.121Z,13.04
2023-10-30T16:00:04.608Z,12.92
2023-10-30T16:02:40.353Z,12.98
2023-10-30T16:05:07.821Z,13.08
2023-10-30T16:07:34.810Z,12.85
2023-10-30T16:12:31.067Z,12.75
2023-10-30T16:14:57.819Z,12.60
2023-10-30T16:17:24.603Z,12.89
2023-10-30T16:22:22.224Z,12.93
2023-10-30T16:24:48.898Z,12.86
2023-10-30T16:27:15.577Z,12.80
2023-10-30T16:29:42.259Z,12.72
2023-10-30T16:32:08.949Z,12.77
2023-10-30T16:34:35.657Z,12.65
2023-10-30T16:37:03.987Z,12.41
2023-10-30T16:39:30.705Z,12.43
2023-10-30T16:41:57.415Z,12.45
2023-10-30T16:44:24.062Z,12.52
2023-10-30T16:46:50.864Z,12.56
2023-10-30T16:49:17.621Z,12.63
2023-10-30T16:51:44.412Z,12.72
2023-10-30T16:54:12.756Z,12.74
2023-10-30T16:56:39.490Z,12.74
2023-10-30T16:59:06.175Z,12.61
2023-10-30T17:01:32.900Z,12.75
2023-10-30T17:03:59.600Z,12.63
2023-10-30T17:06:26.331Z,12.55
2023-10-30T17:08:53.010Z,12.50
2023-10-30T17:11:21.084Z,12.40
2023-10-30T17:13:47.790Z,12.24
2023-10-30T17:16:14.509Z,12.37
2023-10-30T17:18:41.215Z,12.29
2023-10-30T17:21:07.981Z,12.21
2023-10-30T17:23:34.697Z,12.23
2023-10-30T17:26:01.565Z,12.23
2023-10-30T17:28:29.596Z,12.27
2023-10-30T17:30:56.359Z,12.14
2023-10-30T17:33:23.062Z,12.05
2023-10-30T17:35:49.786Z,12.09
2023-10-30T17:38:16.490Z,12.18
2023-10-30T17:40:43.212Z,12.26
2023-10-30T17:43:09.935Z,12.15
2023-10-30T17:45:37.948Z,12.19
2023-10-30T17:48:05.246Z,12.21
2023-10-30T17:50:31.915Z,12.16
2023-10-30T17:52:58.626Z,12.01
2023-10-30T17:55:25.486Z,12.21
2023-10-30T17:57:52.384Z,11.94
2023-10-30T18:00:19.400Z,11.95
2023-10-30T18:02:47.517Z,11.81
2023-10-30T18:05:14.318Z,11.77
2023-10-30T18:07:41.056Z,11.86
2023-10-30T18:10:08.409Z,11.70
2023-10-30T18:12:35.081Z,11.65
2023-10-30T18:15:01.778Z,11.98
2023-10-30T18:17:28.456Z,11.96
2023-10-30T18:19:56.501Z,12.07
2023-10-30T18:22:23.177Z,12.07
2023-10-30T18:24:50.017Z,12.09
2023-10-30T18:27:16.875Z,11.97
2023-10-30T18:29:44.054Z,11.78
2023-10-30T18:32:10.769Z,11.79
2023-10-30T18:34:37.507Z,11.82
2023-10-30T18:37:05.656Z,11.85
2023-10-30T18:39:32.299Z,11.78
2023-10-30T18:41:58.994Z,11.81
2023-10-30T18:44:25.701Z,11.85
2023-10-30T18:46:52.431Z,12.09
2023-10-30T18:49:19.116Z,12.11
2023-10-30T18:51:45.807Z,12.21
2023-10-30T18:54:13.784Z,12.24
2023-10-30T18:56:40.465Z,12.29
2023-10-30T18:59:07.200Z,12.45
2023-10-30T19:01:34.138Z,12.48
2023-10-30T19:04:00.929Z,12.46
2023-10-30T19:06:27.603Z,12.52
2023-10-30T19:08:54.290Z,12.59
2023-10-30T19:11:22.304Z,12.60
2023-10-30T19:13:49.182Z,12.66
2023-10-30T19:16:16.001Z,12.62
2023-10-30T19:18:42.782Z,12.61
2023-10-30T19:21:09.444Z,12.63
2023-10-30T19:23:36.217Z,12.61
2023-10-30T19:26:03.084Z,12.69
2023-10-30T19:28:31.186Z,12.58
2023-10-30T19:30:57.900Z,12.62
2023-10-30T19:33:24.586Z,12.65
2023-10-30T19:35:51.289Z,12.73
2023-10-30T19:38:17.980Z,12.62
2023-10-30T19:40:44.739Z,12.57
2023-10-30T19:43:11.481Z,12.66
2023-10-30T19:45:39.512Z,12.62
2023-10-30T19:48:07.055Z,12.66
2023-10-30T19:50:34.032Z,12.57
2023-10-30T19:53:00.837Z,12.55
2023-10-30T19:55:27.570Z,12.61
2023-10-30T19:57:54.264Z,12.70
2023-10-30T20:00:21.043Z,12.69
2023-10-30T20:02:49.780Z,12.51
2023-10-30T20:05:16.837Z,12.52
2023-10-30T20:07:43.699Z,12.56
2023-10-30T20:10:22.281Z,12.46
2023-10-30T20:12:57.623Z,12.47
2023-10-30T20:15:24.946Z,12.46
2023-10-30T20:17:53.138Z,12.29
2023-10-30T20:20:19.864Z,12.21
2023-10-30T20:22:46.559Z,12.06
2023-10-30T20:25:13.773Z,12.11
2023-10-30T20:27:40.647Z,11.80
2023-10-30T20:30:08.648Z,11.86
2023-10-30T20:32:35.560Z,11.84
2023-10-30T20:35:04.234Z,11.76
2023-10-30T20:37:31.434Z,11.65
2023-10-30T20:39:58.321Z,11.50
2023-10-30T20:42:25.408Z,11.40
2023-10-30T20:44:52.476Z,11.54
2023-10-30T20:47:19.491Z,11.51
2023-10-30T20:49:46.267Z,11.51
2023-10-30T20:52:14.312Z,11.51
2023-10-30T20:54:41.049Z,11.29
2023-10-30T20:57:07.737Z,11.38
2023-10-30T20:59:34.385Z,11.13
2023-10-30T21:02:01.156Z,11.28
2023-10-30T21:04:27.931Z,11.02
2023-10-30T21:06:54.643Z,11.18
2023-10-30T21:09:22.641Z,11.22
2023-10-30T21:11:49.359Z,11.19
2023-10-30T21:14:16.008Z,11.19
2023-10-30T21:16:42.916Z,11.20
2023-10-30T21:19:09.666Z,11.11
2023-10-30T21:21:36.474Z,11.31
2023-10-30T21:24:03.310Z,11.08
2023-10-30T21:26:31.329Z,11.20
2023-10-30T21:28:58.044Z,11.04
2023-10-30T21:31:24.845Z,11.07
2023-10-30T21:33:51.595Z,11.24
2023-10-30T21:36:18.317Z,11.43
2023-10-30T21:38:45.026Z,11.55
2023-10-30T21:41:11.782Z,11.56
2023-10-30T21:43:39.856Z,11.61
2023-10-30T21:46:06.735Z,11.61
2023-10-30T21:48:33.434Z,11.52
2023-10-30T21:51:00.161Z,11.48
2023-10-30T21:53:26.860Z,11.58
2023-10-30T21:55:53.602Z,11.73
2023-10-30T21:58:20.245Z,11.75
2023-10-30T22:00:48.513Z,11.88
2023-10-30T22:03:15.240Z,11.69
2023-10-30T22:05:41.992Z,11.82
2023-10-30T22:08:08.702Z,11.74
2023-10-30T22:10:35.616Z,11.84
2023-10-30T22:13:02.260Z,11.90
2023-10-30T22:15:29.063Z,11.80
2023-10-30T22:17:57.137Z,11.86
2023-10-30T22:20:23.902Z,12.10
2023-10-30T22:22:50.760Z,12.21
2023-10-30T22:25:17.496Z,12.24
2023-10-30T22:27:44.183Z,12.19
2023-10-30T22:30:11.301Z,12.12
2023-10-30T22:32:40.281Z,12.17
2023-10-30T22:35:09.026Z,12.28
2023-10-30T22:37:36.028Z,12.30
2023-10-30T22:40:03.208Z,12.39
2023-10-30T22:42:29.933Z,12.31
2023-10-30T22:44:56.622Z,12.30
2023-10-30T22:47:23.334Z,12.18
2023-10-30T22:49:50.074Z,12.17
2023-10-30T22:52:18.211Z,12.18
2023-10-30T22:54:45.110Z,12.24
2023-10-30T22:57:11.750Z,12.17
2023-10-30T22:59:38.511Z,11.89
2023-10-30T23:02:05.523Z,11.95
2023-10-30T23:04:32.317Z,12.02
2023-10-30T23:06:58.964Z,12.06
2023-10-30T23:09:27.041Z,12.09
2023-10-30T23:11:53.727Z,11.94
2023-10-30T23:14:20.543Z,11.92
2023-10-30T23:16:47.277Z,12.07
2023-10-30T23:19:14.016Z,12.21
2023-10-30T23:21:40.801Z,12.21
2023-10-30T23:24:08.135Z,11.94
2023-10-30T23:26:36.122Z,11.91
2023-10-30T23:29:02.796Z,11.96
2023-10-30T23:31:29.468Z,11.89
2023-10-30T23:33:56.162Z,11.83
2023-10-30T23:36:22.925Z,11.79
2023-10-30T23:38:49.629Z,11.75
2023-10-30T23:41:16.296Z,11.75
2023-10-30T23:43:44.388Z,11.91
2023-10-30T23:46:11.122Z,11.92
2023-10-30T23:48:37.849Z,11.84
2023-10-30T23:51:04.617Z,11.61
2023-10-30T23:53:31.380Z,11.67
2023-10-30T23:55:58.130Z,11.88
2023-10-30T23:58:24.872Z,11.98
